Time;durP1;ratioP1;P1;durP2;ratioP2;P2;SDS_P1;SDS_P2;PMS_P1;PMS_P2;Temp;Humidity;BMP_temperature;BMP_pressure;BME280_temperature;BME280_humidity;BME280_pressure;Samples;Min_cycle;Max_cycle;Signal;HPM_P1;HPM_P2
2021/10/09 00:00:56;;;;;;;3.03;2.92;;;;;;;13.92;85.30;103468.25;6365113;28;20216;-70
2021/10/09 00:04:00;;;;;;;4.45;3.65;;;;;;;13.99;85.02;103462.94;6366519;28;20189;-71
2021/10/09 00:07:06;;;;;;;3.60;3.40;;;;;;;13.76;86.72;103466.41;6366094;28;20208;-71
2021/10/09 00:10:12;;;;;;;3.22;3.03;;;;;;;13.68;88.65;103469.19;6364942;28;20374;-71
2021/10/09 00:13:17;;;;;;;3.40;3.10;;;;;;;13.74;88.16;103473.97;6365642;28;20292;-71
2021/10/09 00:16:22;;;;;;;6.10;3.15;;;;;;;13.79;87.71;103485.28;6366074;28;20186;-72
2021/10/09 00:19:27;;;;;;;11.27;6.65;;;;;;;13.78;87.68;103478.09;6364796;28;20236;-71
2021/10/09 00:22:31;;;;;;;26.23;15.80;;;;;;;13.74;88.25;103476.72;6364786;28;20498;-71
2021/10/09 00:25:35;;;;;;;5.82;3.90;;;;;;;13.84;86.80;103475.69;6365787;28;20245;-71
2021/10/09 00:28:39;;;;;;;3.65;3.45;;;;;;;13.74;88.46;103482.19;6365618;28;20219;-71
2021/10/09 00:31:45;;;;;;;8.50;3.47;;;;;;;13.82;87.30;103476.69;6364565;28;20181;-71
2021/10/09 00:34:49;;;;;;;5.13;3.20;;;;;;;13.84;87.24;103476.50;6365537;28;20261;-71
2021/10/09 00:37:54;;;;;;;4.85;2.80;;;;;;;13.90;86.65;103472.22;6364614;28;20465;-71
2021/10/09 00:40:58;;;;;;;2.95;2.85;;;;;;;13.80;88.25;103480.66;6379675;27;20234;-71
2021/10/09 00:44:11;;;;;;;3.55;3.25;;;;;;;13.80;88.23;103467.78;6364290;28;20463;-71
2021/10/09 00:47:17;;;;;;;10.15;6.45;;;;;;;13.73;87.47;103464.03;6346311;28;20225;-71
2021/10/09 00:50:21;;;;;;;4.18;3.97;;;;;;;13.84;87.74;103464.72;6346499;28;20439;-71
2021/10/09 00:53:27;;;;;;;43.00;25.17;;;;;;;13.88;86.87;103468.78;6365082;28;20182;-71
2021/10/09 00:56:34;;;;;;;15.95;11.63;;;;;;;13.82;86.75;103462.97;6365045;28;20187;-71
2021/10/09 00:59:40;;;;;;;4.35;4.03;;;;;;;13.84;87.40;103459.22;6365388;28;20269;-71
2021/10/09 01:02:47;;;;;;;4.10;3.83;;;;;;;13.82;87.24;103457.50;6365500;28;20260;-71
2021/10/09 01:05:51;;;;;;;3.90;3.70;;;;;;;13.90;87.99;103447.50;6346132;28;20205;-71
2021/10/09 01:08:55;;;;;;;5.68;3.42;;;;;;;13.91;88.26;103454.72;6365085;28;20212;-71
2021/10/09 01:12:00;;;;;;;3.90;2.90;;;;;;;13.97;87.82;103448.53;6345973;28;20233;-71
2021/10/09 01:15:16;;;;;;;3.45;3.00;;;;;;;14.03;86.48;103447.81;6346179;28;20206;-71
2021/10/09 01:18:22;;;;;;;3.88;3.45;;;;;;;13.94;87.44;103443.41;6345479;28;20391;-71
2021/10/09 01:21:39;;;;;;;7.65;3.53;;;;;;;13.91;87.51;103439.13;6345350;28;20331;-71
2021/10/09 01:24:44;;;;;;;3.47;3.28;;;;;;;14.06;86.55;103436.50;6346434;28;20198;-71
2021/10/09 01:27:48;;;;;;;3.80;3.50;;;;;;;13.95;87.01;103434.13;6345661;28;20404;-71
2021/10/09 01:30:54;;;;;;;8.85;3.20;;;;;;;13.98;85.93;103429.13;6364624;28;20257;-71
2021/10/09 01:34:01;;;;;;;4.25;3.60;;;;;;;14.00;87.02;103431.69;6346451;28;20277;-71
2021/10/09 01:37:07;;;;;;;3.88;3.53;;;;;;;13.91;88.07;103427.28;6358997;28;20198;-71
2021/10/09 01:40:16;;;;;;;3.97;3.00;;;;;;;14.00;87.87;103431.69;6342477;28;20244;-71
2021/10/09 01:43:25;;;;;;;3.67;3.40;;;;;;;14.02;87.14;103419.50;6345550;28;20198;-71
2021/10/09 01:46:29;;;;;;;8.15;3.78;;;;;;;14.04;86.84;103427.59;6363835;28;20182;-71
2021/10/09 01:49:33;;;;;;;5.82;4.03;;;;;;;13.97;85.35;103421.09;6345467;28;20202;-71
2021/10/09 01:52:45;;;;;;;3.90;3.47;;;;;;;14.02;86.75;103430.50;6345318;28;20207;-71
2021/10/09 01:55:50;;;;;;;3.15;3.03;;;;;;;13.95;86.42;103423.13;6344561;28;20519;-71
2021/10/09 01:58:55;;;;;;;6.22;3.47;;;;;;;13.92;87.27;103423.53;6344589;28;20233;-71
2021/10/09 02:02:09;;;;;;;6.00;3.50;;;;;;;13.84;86.67;103420.78;6362726;28;20210;-71
2021/10/09 02:05:15;;;;;;;4.63;3.78;;;;;;;13.92;86.64;103412.53;6345281;28;20204;-71
2021/10/09 02:08:21;;;;;;;8.27;3.60;;;;;;;13.88;86.87;103422.16;6345234;28;20234;-71
2021/10/09 02:11:33;;;;;;;4.32;3.92;;;;;;;13.90;87.00;103420.06;6344394;28;20453;-71
2021/10/09 02:14:43;;;;;;;5.22;3.50;;;;;;;13.96;86.80;103424.88;6345094;28;20198;-71
2021/10/09 02:24:45;;;;;;;9.43;3.88;;;;;;;13.96;86.22;103420.22;6344278;28;20202;-71
2021/10/09 02:27:49;;;;;;;4.72;3.92;;;;;;;13.94;87.32;103421.44;6344205;28;20198;-71
2021/10/09 02:30:54;;;;;;;5.75;4.07;;;;;;;14.02;86.17;103424.16;6344777;28;20237;-71
2021/10/09 02:34:03;;;;;;;3.30;3.20;;;;;;;14.05;85.85;103423.78;6344275;28;20197;-71
2021/10/09 02:37:07;;;;;;;7.00;3.60;;;;;;;13.92;85.85;103418.03;6362154;28;20198;-71
2021/10/09 02:40:18;;;;;;;7.25;3.83;;;;;;;13.96;85.81;103408.41;6332328;28;20305;-72
2021/10/09 02:43:23;;;;;;;7.13;3.47;;;;;;;14.03;85.65;103414.88;6318937;28;20252;-72
2021/10/09 02:46:29;;;;;;;4.88;3.70;;;;;;;13.94;86.60;103421.44;6319508;28;20262;-72
2021/10/09 02:49:33;;;;;;;7.20;3.70;;;;;;;13.92;86.83;103423.53;6336404;28;20375;-71
2021/10/09 02:52:38;;;;;;;7.05;3.55;;;;;;;13.89;87.48;103421.13;6318968;28;20265;-71
2021/10/09 02:55:43;;;;;;;8.13;3.50;;;;;;;13.86;87.23;103421.47;6351649;28;20581;-71
2021/10/09 02:58:47;;;;;;;5.18;4.80;;;;;;;13.84;86.38;103410.66;6352730;28;20283;-71
2021/10/09 03:01:52;;;;;;;3.85;3.22;;;;;;;13.98;85.83;103420.03;6351966;28;20411;-71
2021/10/09 03:04:58;;;;;;;4.15;3.95;;;;;;;13.93;86.13;103420.59;6318312;28;20198;-71
2021/10/09 03:08:05;;;;;;;6.43;3.55;;;;;;;13.88;87.67;103422.16;6352072;28;20361;-71
2021/10/09 03:11:15;;;;;;;4.82;4.40;;;;;;;13.86;87.26;103402.25;6335979;28;20218;-71
2021/10/09 03:14:23;;;;;;;4.10;3.90;;;;;;;13.82;88.23;103397.13;6352458;28;20198;-71
2021/10/09 03:17:28;;;;;;;3.95;3.65;;;;;;;13.76;88.47;103406.03;6319293;28;20206;-71
2021/10/09 03:20:32;;;;;;;4.30;3.90;;;;;;;13.79;88.61;103413.94;6318981;28;20266;-71
2021/10/09 03:23:37;;;;;;;3.70;3.50;;;;;;;13.77;89.59;103405.03;6318585;28;20198;-71
2021/10/09 03:26:42;;;;;;;4.10;3.78;;;;;;;13.77;90.56;103405.03;6337186;28;20254;-71
2021/10/09 03:29:47;;;;;;;4.13;3.75;;;;;;;13.75;90.59;103407.09;6351609;28;20371;-71
2021/10/09 03:32:51;;;;;;;4.40;4.10;;;;;;;13.70;91.29;103412.25;6318495;28;20252;-71
2021/10/09 03:35:55;;;;;;;4.43;4.10;;;;;;;13.75;90.57;103415.31;6351651;28;20483;-71
2021/10/09 03:39:05;;;;;;;3.75;3.58;;;;;;;13.85;90.62;103406.03;6318269;28;20549;-72
2021/10/09 03:42:14;;;;;;;4.40;4.20;;;;;;;13.93;89.91;103411.50;6343343;28;20257;-71
2021/10/09 03:45:26;;;;;;;7.35;4.13;;;;;;;13.61;92.38;103413.28;6342284;28;20502;-71
2021/10/09 03:48:45;;;;;;;4.75;4.18;;;;;;;13.64;93.18;103410.19;6343588;28;20205;-71
2021/10/09 03:55:14;;;;;;;5.15;4.10;;;;;;;13.53;93.30;103401.50;6347802;28;20198;-71
2021/10/09 03:58:25;;;;;;;4.28;4.00;;;;;;;13.67;93.01;103398.88;6347988;28;20271;-71
2021/10/09 04:01:29;;;;;;;4.43;4.18;;;;;;;13.68;92.17;103406.09;6365343;28;20593;-71
2021/10/09 04:04:35;;;;;;;7.90;4.07;;;;;;;13.61;91.78;103399.56;6347875;28;20198;-71
2021/10/09 04:07:40;;;;;;;4.40;4.10;;;;;;;13.65;92.48;103400.94;6365269;28;20362;-71
2021/10/09 04:10:50;;;;;;;5.60;3.78;;;;;;;13.74;91.45;103410.84;6347474;28;20198;-71
2021/10/09 04:13:55;;;;;;;4.13;4.00;;;;;;;13.72;91.07;103401.94;6346673;28;20259;-71
2021/10/09 04:17:00;;;;;;;3.78;3.67;;;;;;;13.68;91.79;103405.22;6381125;27;20261;-71
2021/10/09 04:20:07;;;;;;;4.30;3.95;;;;;;;13.64;91.59;103404.72;6347283;28;20388;-71
2021/10/09 04:23:15;;;;;;;4.28;3.97;;;;;;;13.72;91.64;103401.94;6381518;27;20210;-71
2021/10/09 04:26:19;;;;;;;8.48;4.25;;;;;;;13.64;92.69;103396.47;6347053;28;20545;-71
2021/10/09 04:29:26;;;;;;;4.88;3.85;;;;;;;13.63;93.61;103392.06;6346718;28;20198;-70
2021/10/09 04:32:30;;;;;;;5.07;4.68;;;;;;;13.66;92.76;103397.16;6346106;28;20438;-71
2021/10/09 04:35:35;;;;;;;4.50;4.20;;;;;;;13.65;92.53;103383.63;6347329;28;20270;-71
2021/10/09 04:38:39;;;;;;;4.03;3.92;;;;;;;13.71;91.25;103394.75;6347090;28;20229;-71
2021/10/09 04:41:43;;;;;;;6.15;4.28;;;;;;;13.64;92.33;103381.91;6323849;28;20230;-71
2021/10/09 04:44:49;;;;;;;4.30;4.10;;;;;;;13.63;92.39;103381.06;6355544;28;20275;-71
2021/10/09 04:47:53;;;;;;;4.63;4.22;;;;;;;13.62;93.81;103378.50;6321481;28;20294;-71
2021/10/09 04:50:58;;;;;;;4.50;4.30;;;;;;;13.57;93.92;103387.25;6354908;28;20502;-71
2021/10/09 04:54:03;;;;;;;4.43;4.07;;;;;;;13.53;93.86;103382.31;6355409;28;20202;-71
2021/10/09 04:57:10;;;;;;;4.70;4.35;;;;;;;13.54;94.43;103376.63;6321967;28;20241;-71
2021/10/09 05:00:16;;;;;;;4.90;4.40;;;;;;;13.53;94.58;103383.13;6320999;28;20198;-72
2021/10/09 05:03:21;;;;;;;5.07;4.35;;;;;;;13.58;93.62;103375.25;6320413;28;20230;-71
2021/10/09 05:06:25;;;;;;;4.78;4.47;;;;;;;13.61;94.23;103371.31;6321696;28;20199;-71
2021/10/09 05:09:30;;;;;;;4.80;4.10;;;;;;;13.54;94.25;103382.13;6321030;28;20278;-71
2021/10/09 05:12:35;;;;;;;5.20;4.57;;;;;;;13.61;94.39;103383.13;6320947;28;20209;-71
2021/10/09 05:15:46;;;;;;;5.32;4.93;;;;;;;13.61;93.83;103379.53;6354557;28;20199;-72
2021/10/09 05:18:58;;;;;;;5.00;4.53;;;;;;;13.52;94.10;103389.66;6320938;28;20199;-71
2021/10/09 05:22:02;;;;;;;4.50;4.20;;;;;;;13.45;94.69;103385.91;6339299;28;20285;-71
2021/10/09 05:25:07;;;;;;;4.93;4.63;;;;;;;13.50;94.93;103383.50;6320149;28;20206;-71
2021/10/09 05:28:16;;;;;;;5.00;4.65;;;;;;;13.51;94.30;103376.97;6321326;28;20222;-71
2021/10/09 05:31:24;;;;;;;5.05;4.80;;;;;;;13.46;95.19;103384.88;6353727;28;20230;-72
2021/10/09 05:34:30;;;;;;;5.45;5.13;;;;;;;13.59;94.10;103379.69;6320254;28;20203;-71
2021/10/09 05:37:35;;;;;;;5.45;5.00;;;;;;;13.63;93.34;103378.34;6320046;28;20523;-71
2021/10/09 05:40:42;;;;;;;4.90;4.57;;;;;;;13.56;93.50;103385.53;6348573;27;20256;-72
2021/10/09 05:43:46;;;;;;;4.70;4.40;;;;;;;13.53;94.68;103391.34;6404607;27;20524;-71
2021/10/09 05:46:53;;;;;;;5.35;5.00;;;;;;;13.54;94.58;103387.59;6371233;27;20233;-71
2021/10/09 05:49:59;;;;;;;5.70;5.25;;;;;;;13.51;94.68;103387.94;6370489;27;20557;-71
2021/10/09 05:53:12;;;;;;;5.80;5.40;;;;;;;13.53;94.45;103396.84;6405156;27;20208;-71
2021/10/09 05:56:24;;;;;;;5.25;5.03;;;;;;;13.54;94.56;103387.59;6404769;27;20249;-71
2021/10/09 07:00:29;;;;;;;6.05;5.65;;;;;;;13.67;94.08;103404.38;6386935;28;20467;-71
2021/10/09 07:03:34;;;;;;;8.48;6.28;;;;;;;13.68;94.31;103406.09;6388220;28;20237;-70
2021/10/09 07:06:42;;;;;;;12.85;6.57;;;;;;;13.72;94.03;103410.19;6368930;28;20205;-71
2021/10/09 07:10:04;;;;;;;6.80;6.30;;;;;;;13.72;94.13;103412.94;6403523;27;20239;-71
2021/10/09 07:13:10;;;;;;;7.55;6.80;;;;;;;13.79;94.70;103413.06;6368945;28;20201;-71
2021/10/09 07:16:15;;;;;;;6.53;6.13;;;;;;;13.84;93.56;103410.66;6368703;28;20228;-71
2021/10/09 07:19:19;;;;;;;7.05;6.50;;;;;;;13.90;93.05;103414.59;6369671;28;20270;-71
2021/10/09 07:22:24;;;;;;;8.18;6.63;;;;;;;13.95;92.85;103404.78;6386444;27;20182;-71
2021/10/09 07:25:50;;;;;;;7.40;6.80;;;;;;;13.88;92.95;103402.94;6374511;27;20265;-71
2021/10/09 07:28:54;;;;;;;7.75;6.95;;;;;;;13.83;93.69;103408.97;6391658;27;20192;-70
2021/10/09 07:31:58;;;;;;;8.75;6.88;;;;;;;13.86;93.56;103405.88;6373680;27;20242;-70
2021/10/09 07:35:02;;;;;;;7.95;7.18;;;;;;;13.92;93.15;103407.06;6391594;27;20265;-72
2021/10/09 07:38:11;;;;;;;7.57;6.75;;;;;;;13.99;92.53;103402.56;6391781;27;20235;-72
2021/10/09 07:41:16;;;;;;;7.93;7.18;;;;;;;14.02;92.64;103407.69;6372474;27;20237;-71
2021/10/09 07:44:22;;;;;;;7.32;6.72;;;;;;;14.02;92.49;103399.47;6364977;28;20284;-71
2021/10/09 07:47:27;;;;;;;7.72;6.78;;;;;;;14.10;92.27;103404.88;6367018;28;20182;-71
2021/10/09 07:50:31;;;;;;;7.90;6.95;;;;;;;14.10;92.76;103404.88;6367017;28;20249;-71
2021/10/09 07:53:35;;;;;;;8.55;7.10;;;;;;;14.09;92.69;103392.22;6366361;28;20186;-70
2021/10/09 07:56:41;;;;;;;7.80;7.10;;;;;;;14.11;92.31;103395.63;6366876;28;20190;-71
2021/10/09 07:59:45;;;;;;;8.23;7.05;;;;;;;14.08;92.84;103395.97;6365309;28;20466;-70
2021/10/09 08:02:50;;;;;;;9.65;7.50;;;;;;;14.14;93.36;103396.13;6366054;28;20182;-71
2021/10/09 08:05:55;;;;;;;11.20;8.48;;;;;;;14.20;92.17;103400.06;6366320;28;20249;-70
2021/10/09 08:08:59;;;;;;;9.52;8.68;;;;;;;14.21;92.05;103399.00;6366368;28;20213;-71
2021/10/09 08:12:05;;;;;;;11.10;9.40;;;;;;;14.33;91.44;103403.09;6366182;28;20186;-71
2021/10/09 08:15:10;;;;;;;9.23;8.05;;;;;;;14.35;91.46;103409.28;6366162;28;20223;-71
2021/10/09 08:18:17;;;;;;;7.75;7.05;;;;;;;14.40;91.09;103396.72;6365146;28;20182;-71
2021/10/09 08:21:25;;;;;;;8.15;7.38;;;;;;;14.49;90.33;103403.00;6365893;28;20182;-70
2021/10/09 08:24:34;;;;;;;7.80;7.05;;;;;;;14.51;90.68;103392.69;6364968;28;20238;-71
2021/10/09 08:27:51;;;;;;;7.85;6.93;;;;;;;14.41;90.48;103392.06;6366029;28;20189;-71
2021/10/09 08:41:00;;;;;;;13.82;9.98;;;;;;;14.51;90.49;103387.19;6381673;27;20294;-70
2021/10/09 08:44:06;;;;;;;12.55;9.30;;;;;;;14.72;89.72;103395.63;6391175;27;20215;-71
2021/10/09 08:47:12;;;;;;;11.70;9.13;;;;;;;14.77;89.50;103382.19;6389783;27;20213;-71
2021/10/09 08:50:16;;;;;;;16.90;9.82;;;;;;;14.73;90.16;103385.50;6390022;27;20213;-71
2021/10/09 08:53:35;;;;;;;8.48;7.78;;;;;;;14.76;89.02;103387.91;6390837;27;20204;-71
2021/10/09 08:56:41;;;;;;;7.97;7.25;;;;;;;14.76;89.27;103380.50;6390932;27;20238;-72
2021/10/09 08:59:54;;;;;;;8.20;7.43;;;;;;;14.76;89.89;103391.50;6390134;27;20230;-71
2021/10/09 09:03:04;;;;;;;9.93;8.18;;;;;;;14.63;90.92;103396.75;6390488;27;20213;-71
2021/10/09 09:06:20;;;;;;;11.43;8.38;;;;;;;14.70;90.46;103394.97;6389107;27;20466;-71
2021/10/09 09:34:05;;;;;;;14.23;10.40;;;;;;;14.84;89.74;103398.81;6352527;27;20207;-71
2021/10/09 09:37:38;;;;;;;20.15;10.38;;;;;;;14.91;89.83;103400.66;6389500;27;20228;-72
2021/10/09 09:40:45;;;;;;;25.35;14.85;;;;;;;14.95;88.98;103396.50;6389425;27;20346;-71
2021/10/09 09:43:51;;;;;;;17.20;12.40;;;;;;;15.00;88.66;103402.28;6388066;27;20218;-71
2021/10/09 09:47:05;;;;;;;16.85;11.27;;;;;;;15.02;88.57;103391.94;6388246;27;20181;-71
2021/10/09 09:50:30;;;;;;;8.30;7.32;;;;;;;15.07;88.01;103393.31;6388956;27;20181;-71
2021/10/09 09:53:35;;;;;;;7.68;6.95;;;;;;;14.91;89.07;103395.16;6388828;27;20189;-71
2021/10/09 09:56:39;;;;;;;8.80;6.85;;;;;;;14.95;89.42;103391.00;6389268;27;20203;-71
2021/10/09 09:59:45;;;;;;;18.42;12.13;;;;;;;14.71;90.87;103399.44;6387741;27;20244;-71
2021/10/09 10:02:51;;;;;;;19.75;13.55;;;;;;;15.00;89.31;103395.94;6387700;27;20407;-71
2021/10/09 10:05:57;;;;;;;11.45;9.23;;;;;;;14.96;89.34;103398.22;6388646;27;20205;-71
2021/10/09 10:09:04;;;;;;;10.88;8.73;;;;;;;15.02;88.78;103404.88;6387591;27;20248;-71
2021/10/09 10:12:11;;;;;;;10.55;6.97;;;;;;;15.11;88.40;103383.63;6388775;27;20244;-72
2021/10/09 10:15:16;;;;;;;8.55;7.03;;;;;;;15.04;89.55;103384.41;6387633;27;20496;-71
2021/10/09 10:18:50;;;;;;;6.63;5.45;;;;;;;14.98;89.32;103379.63;6370022;27;20232;-72
2021/10/09 10:21:56;;;;;;;7.15;6.47;;;;;;;15.11;88.04;103381.75;6388459;27;20188;-71
2021/10/09 10:25:00;;;;;;;7.03;6.50;;;;;;;15.02;88.28;103378.22;6388424;27;20228;-71
2021/10/09 10:28:06;;;;;;;7.10;6.45;;;;;;;15.07;88.92;103376.81;6388320;27;20189;-72
2021/10/09 10:31:11;;;;;;;6.28;5.88;;;;;;;15.07;89.13;103375.75;6389822;27;20188;-71
2021/10/09 10:34:25;;;;;;;7.57;6.20;;;;;;;15.13;88.61;103371.41;6388936;27;20186;-71
2021/10/09 10:37:36;;;;;;;9.07;7.50;;;;;;;15.18;88.85;103373.59;6387083;27;20492;-71
2021/10/09 10:40:47;;;;;;;9.57;7.53;;;;;;;15.10;89.17;103379.19;6388153;27;20313;-71
2021/10/09 10:43:53;;;;;;;17.00;7.13;;;;;;;15.15;88.54;103368.50;6387278;27;20189;-71
2021/10/09 10:47:02;;;;;;;6.78;6.18;;;;;;;15.15;88.71;103369.31;6387189;27;20236;-71
2021/10/09 10:50:15;;;;;;;6.38;5.70;;;;;;;15.09;88.88;103375.59;6387063;27;20186;-71
2021/10/09 10:53:26;;;;;;;11.50;9.23;;;;;;;15.17;88.17;103378.25;6388133;27;20323;-72
2021/10/09 10:56:30;;;;;;;5.70;5.30;;;;;;;15.13;88.31;103381.53;6387012;28;20216;-71
2021/10/09 10:59:36;;;;;;;9.10;7.57;;;;;;;15.18;88.22;103379.09;6387831;27;20260;-71
2021/10/09 11:02:46;;;;;;;6.13;5.53;;;;;;;15.11;88.63;103379.00;6369373;28;20265;-71
2021/10/09 11:05:53;;;;;;;6.70;6.18;;;;;;;15.07;88.66;103382.31;6386522;28;20237;-72
2021/10/09 11:08:59;;;;;;;17.15;10.73;;;;;;;15.15;88.83;103385.00;6387861;28;20249;-71
2021/10/09 11:12:04;;;;;;;36.20;18.80;;;;;;;15.19;89.68;103381.69;6386828;28;20181;-72
2021/10/09 11:15:19;;;;;;;35.38;19.65;;;;;;;15.23;88.29;103387.66;6387580;28;20185;-72
2021/10/09 11:18:23;;;;;;;40.92;21.42;;;;;;;15.18;89.11;103379.09;6387560;28;20182;-72
2021/10/09 11:21:28;;;;;;;47.22;21.17;;;;;;;15.22;88.93;103385.94;6387935;28;20182;-72
2021/10/09 11:24:44;;;;;;;27.70;14.88;;;;;;;15.22;88.35;103380.44;6388114;28;20280;-72
2021/10/09 11:27:48;;;;;;;24.10;14.02;;;;;;;15.15;88.98;103383.06;6386550;28;20490;-72
2021/10/09 11:30:52;;;;;;;18.40;10.85;;;;;;;15.07;89.54;103385.06;6387864;28;20189;-72
2021/10/09 11:34:00;;;;;;;17.25;10.82;;;;;;;15.13;88.99;103376.91;6386771;28;20189;-72
2021/10/09 11:37:05;;;;;;;10.80;9.00;;;;;;;15.12;88.79;103377.97;6387974;28;20265;-72
2021/10/09 11:40:12;;;;;;;8.68;7.20;;;;;;;15.15;88.70;103371.25;6387418;28;20233;-71
2021/10/09 11:43:26;;;;;;;6.30;5.88;;;;;;;15.20;88.46;103374.28;6386550;28;20235;-72
2021/10/09 11:46:46;;;;;;;6.20;5.70;;;;;;;15.26;88.13;103373.53;6387307;28;20209;-72
2021/10/09 11:53:39;;;;;;;6.10;5.57;;;;;;;15.26;87.63;103368.03;6386223;28;20182;-72
2021/10/09 11:56:45;;;;;;;5.97;5.57;;;;;;;15.27;87.84;103367.00;6386496;28;20185;-72
2021/10/09 11:59:49;;;;;;;7.20;6.03;;;;;;;15.14;88.42;103353.88;6386248;28;20353;-72
2021/10/09 12:02:53;;;;;;;8.63;6.60;;;;;;;15.30;87.82;103363.88;6387827;28;20185;-72
2021/10/09 12:05:59;;;;;;;7.68;6.72;;;;;;;15.23;88.28;103360.16;6386133;28;20512;-72
2021/10/09 12:09:07;;;;;;;8.05;7.30;;;;;;;15.19;88.94;103359.66;6386618;27;20235;-72
2021/10/09 12:12:19;;;;;;;8.98;6.78;;;;;;;15.20;89.45;103352.28;6390157;27;20185;-71
2021/10/09 12:15:25;;;;;;;6.88;6.22;;;;;;;15.39;87.67;103349.84;6390983;27;20491;-72
2021/10/09 12:18:29;;;;;;;6.90;6.38;;;;;;;15.40;87.87;103361.69;6391606;27;20248;-72
2021/10/09 12:21:35;;;;;;;8.10;7.22;;;;;;;15.36;89.04;103338.34;6391670;27;20185;-72
2021/10/09 12:24:48;;;;;;;7.82;7.20;;;;;;;15.36;88.49;103344.69;6391554;27;20181;-72
2021/10/09 12:27:59;;;;;;;10.98;8.30;;;;;;;15.32;88.88;103342.53;6390562;27;20315;-72
2021/10/09 12:31:03;;;;;;;9.25;7.45;;;;;;;15.42;88.54;103343.09;6391592;27;20182;-72
2021/10/09 12:34:31;;;;;;;7.60;7.00;;;;;;;15.48;87.85;103336.88;6390163;27;20181;-72
2021/10/09 12:37:36;;;;;;;7.68;7.03;;;;;;;15.50;87.84;103340.28;6374486;27;20274;-72
2021/10/09 12:40:42;;;;;;;7.30;6.70;;;;;;;15.50;87.99;103334.78;6390391;27;20256;-72
2021/10/09 12:43:47;;;;;;;14.15;7.00;;;;;;;15.55;87.21;103332.31;6390903;27;20186;-72
2021/10/09 12:46:52;;;;;;;10.98;7.35;;;;;;;15.49;87.79;103327.56;6389979;27;20542;-72
2021/10/09 12:49:56;;;;;;;11.57;7.38;;;;;;;15.49;88.10;103322.06;6390413;27;20246;-72
2021/10/09 12:53:01;;;;;;;8.35;7.43;;;;;;;15.57;87.38;103314.56;6391046;27;20258;-72
2021/10/09 12:56:06;;;;;;;8.05;6.78;;;;;;;15.59;87.70;103319.88;6391065;27;20193;-72
2021/10/09 12:59:12;;;;;;;11.38;7.05;;;;;;;15.68;87.00;103321.50;6390968;27;20263;-72
2021/10/09 13:02:16;;;;;;;9.40;7.00;;;;;;;15.61;87.44;103320.56;6389941;27;20181;-72
2021/10/09 13:05:21;;;;;;;7.95;6.30;;;;;;;15.65;87.90;103321.88;6390492;27;20283;-72
2021/10/09 13:08:25;;;;;;;7.25;6.57;;;;;;;15.59;87.11;103306.13;6390712;27;20247;-72
2021/10/09 13:11:33;;;;;;;8.30;6.40;;;;;;;15.65;87.13;103316.38;6389628;27;20235;-72
2021/10/09 13:14:38;;;;;;;6.53;6.03;;;;;;;15.74;87.35;103309.72;6389255;27;20186;-72
2021/10/09 13:17:42;;;;;;;6.55;6.15;;;;;;;15.70;87.66;103307.53;6390560;27;20248;-72
2021/10/09 13:20:46;;;;;;;5.97;5.47;;;;;;;15.75;87.64;103300.41;6388668;27;20182;-72
2021/10/09 13:23:51;;;;;;;6.00;5.60;;;;;;;15.81;87.12;103299.66;6388966;27;20181;-71
2021/10/09 13:26:55;;;;;;;6.35;5.80;;;;;;;15.86;86.59;103297.19;6388898;27;20237;-70
2021/10/09 13:30:00;;;;;;;6.13;5.63;;;;;;;15.89;86.87;103291.28;6388797;27;20217;-72
2021/10/09 13:33:21;;;;;;;6.22;5.72;;;;;;;15.93;86.64;103292.59;6388775;27;20583;-72
2021/10/09 13:36:26;;;;;;;6.25;5.45;;;;;;;15.89;87.57;103293.19;6390053;27;20181;-72
2021/10/09 13:39:32;;;;;;;6.07;5.47;;;;;;;15.89;86.73;103288.53;6385498;27;20310;-72
2021/10/09 13:42:37;;;;;;;5.93;5.40;;;;;;;15.88;86.55;103300.59;6363005;28;20375;-72
2021/10/09 13:45:46;;;;;;;8.18;5.40;;;;;;;15.87;86.83;103293.38;6364003;28;20186;-72
2021/10/09 13:48:50;;;;;;;5.47;5.18;;;;;;;15.79;87.68;103290.75;6363340;28;20206;-72
2021/10/09 13:51:54;;;;;;;6.80;5.63;;;;;;;15.75;87.33;103283.91;6362605;28;20182;-71
2021/10/09 13:54:59;;;;;;;5.57;5.15;;;;;;;15.76;87.19;103279.25;6362589;28;20182;-72
2021/10/09 13:58:04;;;;;;;5.07;4.72;;;;;;;15.69;87.40;103279.16;6362694;28;20462;-72
2021/10/09 14:01:13;;;;;;;5.30;5.00;;;;;;;15.77;86.73;103276.28;6362627;28;20490;-72
2021/10/09 14:04:18;;;;;;;4.90;4.70;;;;;;;15.75;87.02;103275.66;6363583;28;20281;-72
2021/10/09 14:07:22;;;;;;;5.40;5.00;;;;;;;15.81;87.75;103277.63;6363345;28;20285;-72
2021/10/09 14:10:27;;;;;;;5.47;5.18;;;;;;;15.86;87.40;103269.66;6362970;28;20229;-72
2021/10/09 14:13:31;;;;;;;5.40;4.90;;;;;;;15.82;87.70;103268.31;6363503;28;20182;-72
2021/10/09 14:16:36;;;;;;;5.70;5.20;;;;;;;15.81;87.80;103271.28;6362375;28;20203;-71
2021/10/09 14:19:41;;;;;;;5.68;5.22;;;;;;;15.79;87.62;103265.97;6363371;28;20213;-71
2021/10/09 14:22:45;;;;;;;5.50;5.20;;;;;;;15.74;87.37;103265.66;6363199;28;20279;-71
2021/10/09 14:25:50;;;;;;;6.38;5.95;;;;;;;15.81;87.65;103255.63;6362040;28;20375;-71
2021/10/09 14:28:54;;;;;;;5.60;5.05;;;;;;;15.83;87.20;103253.50;6362931;28;20307;-71
2021/10/09 14:31:59;;;;;;;4.97;4.68;;;;;;;15.72;87.47;103255.91;6362596;28;20335;-71
2021/10/09 14:35:05;;;;;;;5.30;5.00;;;;;;;15.76;88.02;103251.72;6362246;28;20220;-71
2021/10/09 14:38:09;;;;;;;5.07;4.75;;;;;;;15.71;87.38;103260.56;6362295;28;20208;-71
2021/10/09 14:41:14;;;;;;;5.22;4.90;;;;;;;15.75;86.87;103250.00;6380620;27;20233;-71
2021/10/09 14:44:19;;;;;;;4.47;4.28;;;;;;;15.76;87.28;103244.34;6387658;27;20185;-71
2021/10/09 14:50:57;;;;;;;5.22;4.50;;;;;;;15.70;87.35;103247.84;6369067;27;20204;-71
2021/10/09 15:18:04;;;;;;;9.05;8.32;;;;;;;15.58;88.67;103217.22;6387271;28;20201;-72
2021/10/09 15:21:11;;;;;;;11.90;10.55;;;;;;;15.54;88.44;103215.88;6387461;28;20242;-72
2021/10/09 15:24:15;;;;;;;7.80;7.10;;;;;;;15.50;88.89;103224.72;6387015;28;20181;-73
2021/10/09 15:27:19;;;;;;;4.95;4.68;;;;;;;15.47;88.24;103216.84;6386570;28;20529;-72
2021/10/09 15:30:24;;;;;;;5.60;5.07;;;;;;;15.50;88.78;103208.22;6387793;28;20213;-72
2021/10/09 15:33:28;;;;;;;6.57;4.50;;;;;;;15.45;89.65;103216.16;6386577;28;20457;-71
2021/10/09 15:36:33;;;;;;;5.30;5.00;;;;;;;15.44;89.38;103208.94;6387491;28;20181;-72
2021/10/09 15:39:38;;;;;;;5.60;5.20;;;;;;;15.46;88.81;103209.63;6386443;28;20225;-72
2021/10/09 15:42:42;;;;;;;4.57;4.47;;;;;;;15.42;89.32;103202.78;6387804;28;20226;-72
2021/10/09 15:45:46;;;;;;;5.53;4.80;;;;;;;15.45;88.95;103196.91;6391501;27;20185;-72
2021/10/09 15:48:50;;;;;;;5.65;5.20;;;;;;;15.43;88.20;103207.25;6391231;27;20569;-71
2021/10/09 15:51:56;;;;;;;5.78;5.38;;;;;;;15.45;88.01;103194.16;6392468;27;20189;-71
2021/10/09 15:55:01;;;;;;;6.38;5.80;;;;;;;15.24;89.41;103202.34;6392159;27;20192;-71
2021/10/09 15:58:05;;;;;;;6.00;5.53;;;;;;;15.28;88.69;103198.19;6392504;27;20192;-71
2021/10/09 16:01:11;;;;;;;5.85;5.30;;;;;;;15.31;89.02;103197.75;6391050;27;20242;-71
2021/10/09 16:04:15;;;;;;;5.30;4.90;;;;;;;15.18;89.11;103192.09;6392090;27;20185;-71
2021/10/09 16:07:21;;;;;;;5.78;5.20;;;;;;;15.32;88.87;103194.84;6392275;27;20181;-72
2021/10/09 16:10:26;;;;;;;7.18;5.38;;;;;;;15.22;89.21;103198.94;6391889;27;20209;-71
2021/10/09 16:13:32;;;;;;;7.13;5.35;;;;;;;15.26;89.55;103194.75;6390833;27;20493;-71
2021/10/09 16:16:36;;;;;;;10.27;5.93;;;;;;;15.19;89.91;103188.31;6390595;27;20243;-72
2021/10/09 16:19:40;;;;;;;7.82;7.05;;;;;;;15.29;89.85;103188.88;6391690;27;20248;-72
2021/10/09 16:22:47;;;;;;;7.68;6.97;;;;;;;15.30;89.74;103185.09;6390580;27;20181;-71
2021/10/09 16:25:52;;;;;;;9.35;7.15;;;;;;;15.26;90.72;103183.75;6390505;27;20479;-71
2021/10/09 16:28:56;;;;;;;7.40;6.70;;;;;;;15.27;90.75;103179.97;6390526;27;20239;-71
2021/10/09 16:32:00;;;;;;;6.68;5.90;;;;;;;15.16;91.59;103177.69;6390247;27;20438;-71
2021/10/09 16:35:05;;;;;;;7.50;6.32;;;;;;;15.17;90.95;103190.41;6391143;27;20181;-72
2021/10/09 16:38:11;;;;;;;6.32;5.82;;;;;;;15.20;91.37;103177.09;6390655;27;20477;-71
2021/10/09 16:41:15;;;;;;;6.63;6.07;;;;;;;15.13;91.18;103172.56;6390674;27;20436;-71
2021/10/09 16:44:20;;;;;;;8.68;5.25;;;;;;;15.12;91.91;103171.72;6391579;27;20283;-71